Wilkesboro, NC

1:34 PM EST on November 27, 2014 (GMT -0500)
Millers Creek | Change Station
CLOSE
Current Station
Personal Weather Station
Location: Millers Creek, NC
Elevation: 1424 ft
Nearby Weather Stations

Elev 1424 ft 36.19 °N, 81.25 °W | Updated 12 minutes ago

Mostly Cloudy
Mostly Cloudy
44.3 °F
Feels Like 41 °F
N
6.0
Wind Variable Wind from North
Gusts 8.0 mph

Today
High -- | Low -- °F
--% Chance of Precip.
Yesterday
High -- | Low -- °F
Precip. -- in
7:13 AM 5:11 PM
Waxing Crescent, 31% visible
Pressure 30.15 in
Visibility 10.0 miles
Clouds Scattered Clouds 4800 ft
Windchill 41 °F
Dew Point 30 °F
Humidity 58%
Rainfall 0.07 in
Snow Depth Not available.
UV 3 out of 12
Pollen 1.20 out of 12
Air Quality Not available.
Flu Activity Not available.
METAR KUKF 271815Z AUTO 32011G19KT 10SM SCT048 05/M02 A3015 RMK AO2

More Conditions Fewer Conditions

Pressure 30.15 in
Visibility 10.0 miles
Clouds Scattered Clouds 4800 ft
Windchill 41 °F
Dew Point 30 °F
Humidity 58%
Rainfall 0.07 in
Snow Depth Not available.
UV 3 out of 12
Pollen 1.20 out of 12
Air Quality Not available.
Flu Activity Not available.
METAR KUKF 271815Z AUTO 32011G19KT 10SM SCT048 05/M02 A3015 RMK AO2

More Conditions Fewer Conditions

10-Day Weather Forecast

Almanac

Astronomy

Nov. 27, 2014 Rise Set
Actual Time
Civil Twilight
Nautical Twilight
Astronomical Twilight
Moon
Length of Visible Light
Length of Day
Tomorrow will be .
, % of the Moon is Illuminated

Today's Extremes

State Highs State Lows

Community

WunderPhotos

Upload Photos

1,774,083 photos uploaded!

WunderBlogs® & News

Nearby

Air Quality

  Air Quality AQ Index Pollutant
Not available.

Snow Depth

Station Depth Elevation

Earthquake Activity

City Distance Mag. Time & Date
Minimum magnitude displayed is 2.5.

Coastal Water Temperatures

Place Temperature

Nearby Weather Stations